Latest Weather Observations for Croker Island Airport

IDD60801

Issued at 6:31 am CST Thursday 5 May 2016 (issued every 30 minutes, with the page automatically refreshed every 10 minutes)

About weather observations | Map of weather stations | Latest weather observations for NT | Other Formats
Station Details ID: 014308 Name: CROKER ISLAND AIRPORT Lat: -11.16 Lon: 132.48 Height: 9.2 m
Data from the previous 72 hours. | See also: Recent months at Croker Island Airport
Date/Time
CST
Temp
°C
App
Temp
°C
Dew
Point
Rel
Hum
%
Delta-T
°C
Wind Press
QNH
hPa
Press
MSL
hPa
Rain
since 9 am
mm
Dir
 
Spd
km/h
Gust
km/h
Spd
kts
Gust
kts
05/06:30am 25.7 31.5 25.7 100 0.0 ESE 6 7 3 4 1010.9 1010.8 0.0
05/06:00am 25.4 31.0 25.4 100 0.0 ESE 6 6 3 3 1010.6 1010.5 0.0
05/05:30am 25.6 31.7 25.6 100 0.0 ESE 4 6 2 3 1010.3 1010.2 0.0
05/05:00am 25.9 31.8 25.9 100 0.0 ESE 6 6 3 3 1010.2 1010.1 0.0
05/04:30am 25.9 31.8 25.9 100 0.0 ESE 6 6 3 3 1010.1 1010.0 0.0
05/04:00am 26.1 32.1 26.1 100 0.0 E 6 7 3 4 1010.2 1010.1 0.0
05/03:30am 25.9 31.8 25.9 100 0.0 E 6 7 3 4 1010.2 1010.1 0.0
05/03:00am 25.7 31.5 25.7 100 0.0 ENE 6 6 3 3 1010.6 1010.5 0.0
05/02:30am 25.9 31.8 25.9 100 0.0 E 6 7 3 4 1010.7 1010.6 0.0
05/02:00am 25.9 31.8 25.9 100 0.0 E 6 7 3 4 1010.8 1010.7 0.0
05/01:30am 26.0 32.0 26.0 100 0.0 E 6 7 3 4 1011.3 1011.2 0.0
05/01:00am 26.2 32.1 26.2 100 0.0 E 7 7 4 4 1011.4 1011.3 0.0
05/12:30am 26.1 32.1 26.1 100 0.0 ENE 6 7 3 4 1011.7 1011.6 0.0
05/12:00am 26.3 32.5 26.3 100 0.0 ENE 6 7 3 4 1012.0 1011.9 0.0
 
Date/Time
CST
Temp
°C
App
Temp
°C
Dew
Point
Rel
Hum
%
Delta-T
°C
Wind Press
QNH
hPa
Press
MSL
hPa
Rain
since 9 am
mm
Dir
 
Spd
km/h
Gust
km/h
Spd
kts
Gust
kts
04/11:30pm 26.3 32.3 26.3 100 0.0 E 7 7 4 4 1012.2 1012.1 0.0
04/11:00pm 26.6 32.8 26.6 100 0.0 E 7 7 4 4 1012.1 1012.0 0.0
04/10:30pm 26.8 33.3 26.8 100 0.0 E 6 6 3 3 1012.3 1012.2 0.0
04/10:00pm 26.9 33.5 26.9 100 0.0 E 6 7 3 4 1012.5 1012.4 0.0
04/09:30pm 27.1 34.2 27.1 100 0.0 ENE 4 6 2 3 1012.5 1012.4 0.0
04/09:00pm 27.5 34.9 27.5 100 0.0 ENE 4 4 2 2 1012.1 1012.0 0.0
04/08:30pm 27.5 34.5 27.5 100 0.0 NE 6 6 3 3 1011.8 1011.7 0.0
04/08:00pm 27.6 35.4 27.6 100 0.0 ENE 2 4 1 2 1011.5 1011.4 0.0
04/07:30pm 27.9 35.5 27.9 100 0.0 E 4 6 2 3 1010.9 1010.8 0.0
04/07:00pm 28.1 35.5 28.1 100 0.0 ENE 6 9 3 5 1010.5 1010.4 0.0
04/06:30pm 28.3 35.3 28.3 100 0.0 ENE 9 13 5 7 1010.0 1009.9 0.0
04/06:00pm 28.5 35.9 28.3 99 0.1 ENE 7 9 4 5 1009.8 1009.7 0.0
04/05:30pm 28.8 36.4 28.3 97 0.4 E 6 7 3 4 1009.6 1009.5 0.0
04/05:00pm 29.1 35.3 28.2 95 0.7 E 13 19 7 10 1009.2 1009.1 0.0
04/04:30pm 29.3 36.0 28.4 95 0.7 E 11 19 6 10 1009.0 1008.9 0.0
04/04:00pm 29.3 35.5 28.2 94 0.8 E 13 19 7 10 1008.8 1008.7 0.0
04/03:30pm 29.4 35.5 28.1 93 0.9 E 13 20 7 11 1008.8 1008.7 0.0
04/03:00pm 29.5 35.4 28.4 94 0.8 E 15 22 8 12 1009.2 1009.1 0.0
04/02:30pm 29.6 36.1 28.7 95 0.7 E 13 20 7 11 1009.5 1009.4 0.0
04/02:00pm 29.6 35.7 29.1 97 0.4 E 17 26 9 14 1009.8 1009.7 0.0
04/01:30pm 29.5 35.3 29.3 99 0.1 E 19 26 10 14 1010.1 1010.0 0.0
04/01:00pm 29.4 36.1 29.4 100 0.0 E 15 24 8 13 1010.6 1010.5 0.0
04/12:30pm 29.0 35.4 29.0 100 0.0 E 15 24 8 13 1010.9 1010.8 0.0
04/12:00pm 28.9 35.6 28.9 100 0.0 E 13 22 7 12 1011.3 1011.2 0.0
04/11:30am 28.7 34.8 28.7 100 0.0 E 15 22 8 12 1011.8 1011.7 0.0
04/11:00am 27.7 33.9 27.7 100 0.0 ENE 11 15 6 8 1012.3 1012.2 0.0
04/10:30am 31.1 38.5 29.3 90 1.3 SE 11 24 6 13 1012.2 1012.1 0.0
04/10:00am 32.0 38.6 30.3 91 1.3 E 19 30 10 16 1012.3 1012.2 0.0
04/09:30am 31.7 38.7 31.0 96 0.5 E 20 30 11 16 1012.4 1012.3 0.0
04/09:00am 31.4 39.3 31.4 100 0.0 ENE 17 26 9 14 1012.1 1012.0 0.0
04/08:30am 30.1 38.1 30.1 100 0.0 E 11 17 6 9 1012.0 1011.9 0.0
04/08:00am 28.9 36.7 28.9 100 0.0 E 7 13 4 7 1011.9 1011.8 0.0
04/07:30am 26.9 32.5 26.9 100 0.0 E 11 24 6 13 1011.7 1011.6 0.0
04/07:00am 26.5 31.8 26.5 100 0.0 SE 11 19 6 10 1011.3 1011.2 0.0
04/06:30am 26.2 32.3 26.2 100 0.0 E 6 6 3 3 1010.9 1010.8 0.0
04/06:00am 26.1 32.5 26.1 100 0.0 E 4 4 2 2 1010.6 1010.5 0.0
04/05:30am 26.1 32.5 26.1 100 0.0 ENE 4 6 2 3 1010.3 1010.2 0.0
04/05:00am 26.1 32.9 26.1 100 0.0 NE 2 4 1 2 1010.3 1010.2 0.0
04/04:30am 25.9 31.8 25.9 100 0.0 SE 6 7 3 4 1010.3 1010.2 0.0
04/04:00am 25.6 31.1 25.6 100 0.0 ENE 7 7 4 4 1010.3 1010.2 0.0
04/03:30am 26.0 30.6 26.0 100 0.0 NE 13 22 7 12 1010.6 1010.5 0.0
04/03:00am 26.1 33.3 26.1 100 0.0 CALM 0 0 0 0 1010.6 1010.5 0.0
04/02:30am 26.5 33.5 26.5 100 0.0 E 2 4 1 2 1010.8 1010.7 0.0
04/02:00am 26.8 33.3 26.8 100 0.0 ENE 6 7 3 4 1010.8 1010.7 0.0
04/01:30am 27.0 34.0 27.0 100 0.0 ENE 4 6 2 3 1011.2 1011.1 0.0
04/01:00am 27.1 34.2 27.1 100 0.0 ENE 4 6 2 3 1011.2 1011.1 0.0
04/12:30am 27.3 34.1 27.3 100 0.0 ENE 6 7 3 4 1011.5 1011.4 0.0
04/12:00am 27.4 34.3 27.4 100 0.0 ENE 6 9 3 5 1011.6 1011.5 0.0
 
Date/Time
CST
Temp
°C
App
Temp
°C
Dew
Point
Rel
Hum
%
Delta-T
°C
Wind Press
QNH
hPa
Press
MSL
hPa
Rain
since 9 am
mm
Dir
 
Spd
km/h
Gust
km/h
Spd
kts
Gust
kts
03/11:30pm 27.2 33.8 27.2 100 0.0 ENE 7 9 4 5 1011.6 1011.5 0.0
03/11:00pm 27.3 33.9 27.3 100 0.0 E 7 9 4 5 1011.6 1011.5 0.0
03/10:30pm 27.1 34.2 27.1 100 0.0 E 4 6 2 3 1011.8 1011.7 0.0
03/10:00pm 27.2 34.3 27.2 100 0.0 ESE 4 6 2 3 1011.9 1011.8 0.0
03/09:30pm 27.2 34.0 27.2 100 0.0 ESE 6 9 3 5 1011.9 1011.8 0.0
03/09:00pm 27.0 33.6 27.0 100 0.0 E 6 7 3 4 1011.7 1011.6 0.0
03/08:30pm 26.8 33.3 26.8 100 0.0 ESE 6 6 3 3 1011.5 1011.4 0.0
03/08:00pm 27.0 34.0 27.0 100 0.0 ESE 4 6 2 3 1011.4 1011.3 0.0
03/07:30pm 27.1 34.2 27.1 100 0.0 ESE 4 6 2 3 1011.0 1010.9 0.0
03/07:00pm 27.4 34.1 27.4 100 0.0 ESE 7 9 4 5 1010.6 1010.5 0.0
03/06:30pm 27.7 34.6 27.7 100 0.0 ESE 7 11 4 6 1010.4 1010.3 0.0
03/06:00pm 28.2 35.5 28.2 100 0.0 E 7 11 4 6 1010.1 1010.0 0.0
03/05:30pm 28.5 35.3 28.5 100 0.0 ENE 11 17 6 9 1009.7 1009.6 0.0
03/05:00pm 28.9 36.3 28.9 100 0.0 ENE 9 13 5 7 1009.4 1009.3 0.0
03/04:30pm 29.4 37.2 29.4 100 0.0 E 9 13 5 7 1009.1 1009.0 0.0
03/04:00pm 29.4 36.7 29.2 99 0.1 E 11 17 6 9 1009.0 1008.9 0.0
03/03:30pm 29.8 36.9 29.4 98 0.3 E 13 20 7 11 1009.1 1009.0 0.0
03/03:00pm 29.4 35.9 29.2 99 0.1 E 15 20 8 11 1009.5 1009.4 0.0
03/02:30pm 29.2 36.1 29.2 100 0.0 ENE 13 19 7 10 1009.8 1009.7 0.0
03/02:00pm 29.6 36.8 29.6 100 0.0 E 13 20 7 11 1010.1 1010.0 0.0
03/01:30pm 30.0 37.5 30.0 100 0.0 E 13 19 7 10 1010.5 1010.4 0.0
03/01:00pm 29.2 35.7 29.2 100 0.0 E 15 20 8 11 1010.9 1010.8 0.0
03/12:30pm 27.8 33.7 27.8 100 0.0 E 13 20 7 11 1011.4 1011.3 0.0
03/12:00pm 28.4 34.3 28.4 100 0.0 ESE 15 26 8 14 1012.1 1012.0 0.0
03/11:30am 29.2 35.3 29.2 100 0.0 ESE 17 26 9 14 1012.4 1012.3 0.0
03/11:00am 27.8 33.3 27.8 100 0.0 SE 15 24 8 13 1012.8 1012.7 0.0
03/10:30am 26.5 31.1 26.5 100 0.0 ESE 15 22 8 12 1012.7 1012.6 0.0
03/10:00am 26.0 31.8 26.0 100 0.0 E 7 11 4 6 1012.9 1012.8 0.0
03/09:30am 25.9 31.8 25.9 100 0.0 SE 6 11 3 6 1012.9 1012.8 0.0
03/09:00am 25.9 31.2 25.9 100 0.0 E 9 13 5 7 1012.6 1012.5 0.0
03/08:30am 26.5 32.2 26.5 100 0.0 ESE 9 13 5 7 1012.5 1012.4 0.0
03/08:00am 26.4 33.4 26.4 100 0.0 NE 2 6 1 3 1011.9 1011.8 0.0
03/07:30am 26.3 32.5 26.3 100 0.0 SE 6 7 3 4 1011.9 1011.8 0.0
03/07:00am 25.6 31.7 25.6 100 0.0 ESE 4 6 2 3 1011.6 1011.5 0.0
03/06:30am 25.4 31.0 25.4 100 0.0 ESE 6 6 3 3 1011.3 1011.2 0.0
03/06:00am 25.6 31.3 25.6 100 0.0 E 6 6 3 3 1011.0 1010.9 0.0
03/05:30am 25.5 31.1 25.5 100 0.0 ENE 6 6 3 3 1010.7 1010.6 0.0
03/05:00am 25.5 31.5 25.5 100 0.0 ENE 4 4 2 2 1010.5 1010.4 0.0
03/04:30am 25.6 32.4 25.6 100 0.0 CALM 0 4 0 2 1010.3 1010.2 0.0
03/04:00am 26.1 32.1 26.1 100 0.0 NE 6 7 3 4 1010.7 1010.6 0.0
03/03:30am 26.0 32.0 26.0 100 0.0 E 6 6 3 3 1010.6 1010.5 0.0
03/03:00am 26.0 32.0 26.0 100 0.0 E 6 7 3 4 1010.7 1010.6 0.0
03/02:30am 26.0 32.3 26.0 100 0.0 ESE 4 6 2 3 1010.7 1010.6 0.0
03/02:00am 26.0 32.3 26.0 100 0.0 ESE 4 6 2 3 1011.1 1011.0 0.0
03/01:30am 26.1 32.5 26.1 100 0.0 E 4 7 2 4 1011.4 1011.3 0.0
03/01:00am 26.1 32.1 26.1 100 0.0 ESE 6 7 3 4 1011.7 1011.6 0.0
03/12:30am 26.2 32.3 26.2 100 0.0 ESE 6 7 3 4 1011.9 1011.8 0.0
03/12:00am 26.2 32.7 26.2 100 0.0 ESE 4 4 2 2 1011.8 1011.7 0.0
 
Date/Time
CST
Temp
°C
App
Temp
°C
Dew
Point
Rel
Hum
%
Delta-T
°C
Wind Press
QNH
hPa
Press
MSL
hPa
Rain
since 9 am
mm
Dir
 
Spd
km/h
Gust
km/h
Spd
kts
Gust
kts
02/11:30pm 26.1 33.3 26.1 100 0.0 CALM 0 0 0 0 1011.8 1011.7 0.0
02/11:00pm 26.3 33.6 26.3 100 0.0 CALM 0 0 0 0 1012.1 1012.0 0.0
02/10:30pm 26.4 33.8 26.4 100 0.0 CALM 0 2 0 1 1012.2 1012.1 0.0
02/10:00pm 26.4 33.0 26.4 100 0.0 E 4 6 2 3 1012.4 1012.3 0.0
02/09:30pm 26.4 32.6 26.4 100 0.0 E 6 6 3 3 1012.9 1012.8 0.0
02/09:00pm 26.4 32.6 26.4 100 0.0 E 6 6 3 3 1012.7 1012.6 0.0
02/08:30pm 26.6 33.0 26.6 100 0.0 ENE 6 6 3 3 1012.4 1012.3 0.0
02/08:00pm 26.7 34.3 26.7 100 0.0 CALM 0 0 0 0 1012.0 1011.9 0.0
02/07:30pm 27.1 34.6 27.1 100 0.0 E 2 4 1 2 1011.5 1011.4 0.0
02/07:00pm 27.3 34.5 27.3 100 0.0 E 4 6 2 3 1011.1 1011.0 0.0
02/06:30pm 27.6 34.7 27.6 100 0.0 E 6 7 3 4 1011.0 1010.9 0.0
02/06:00pm 28.1 35.5 28.1 100 0.0 ENE 6 9 3 5 1010.4 1010.3 0.0
02/05:30pm 28.6 36.2 28.6 100 0.0 NE 7 11 4 6 1009.7 1009.6 0.0
02/05:00pm 28.8 36.2 28.8 100 0.0 NE 9 13 5 7 1009.2 1009.1 0.0
02/04:30pm 29.0 36.5 29.0 100 0.0 NE 9 13 5 7 1009.2 1009.1 0.0
02/04:00pm 29.0 36.1 29.0 100 0.0 NE 11 15 6 8 1009.2 1009.1 0.0
02/03:30pm 29.0 36.1 29.0 100 0.0 NNE 11 19 6 10 1009.3 1009.2 0.0
02/03:00pm 29.0 36.5 29.0 100 0.0 NE 9 15 5 8 1009.6 1009.5 0.0
02/02:30pm 28.5 34.9 28.5 100 0.0 NE 13 24 7 13 1009.8 1009.7 0.0
02/02:00pm 28.2 34.4 28.2 100 0.0 NE 13 20 7 11 1009.9 1009.8 0.0
02/01:30pm 27.9 33.5 27.9 100 0.0 NE 15 20 8 11 1010.1 1010.0 0.0
02/01:00pm 27.6 33.3 27.6 100 0.0 NE 13 19 7 10 1010.5 1010.4 0.0
02/12:30pm 27.4 34.1 27.4 100 0.0 ENE 7 11 4 6 1011.2 1011.1 0.0
02/12:00pm 27.7 34.3 27.7 100 0.0 NE 9 13 5 7 1011.8 1011.7 0.0
02/11:30am 28.0 34.8 28.0 100 0.0 NE 9 13 5 7 1012.4 1012.3 0.0
02/11:00am 27.5 34.9 27.5 100 0.0 NE 4 6 2 3 1012.5 1012.4 0.0
02/10:30am 26.6 33.0 26.6 100 0.0 ENE 6 7 3 4 1012.5 1012.4 0.0
02/10:00am 25.7 30.9 25.7 100 0.0 ENE 9 15 5 8 1012.8 1012.7 0.0
02/09:30am 25.4 30.4 25.4 100 0.0 E 9 13 5 7 1012.6 1012.5 0.0
02/09:00am 25.3 29.5 25.3 100 0.0 ENE 13 20 7 11 1012.4 1012.3 0.0
02/08:30am 25.1 28.4 25.1 100 0.0 NE 17 24 9 13 1011.7 1011.6 0.0
02/08:00am 25.2 28.6 25.2 100 0.0 ENE 17 22 9 12 1011.6 1011.5 0.0
02/07:30am 25.4 29.6 25.4 100 0.0 ENE 13 17 7 9 1011.5 1011.4 0.0
02/07:00am 25.0 29.7 25.0 100 0.0 ENE 9 13 5 7 1010.7 1010.6 0.0

Other Formats:

Comma delimited format used in spreadsheet applications
http://www.bom.gov.au/fwo/IDD60801/IDD60801.94108.axf

JavaScript Object Notation format (JSON) in row-major order
http://www.bom.gov.au/fwo/IDD60801/IDD60801.94108.json